createdAt,value
2022-08-05T00:01:35.949Z,102.16
2022-08-05T00:04:16.953Z,101.60
2022-08-05T00:06:47.084Z,102.99
2022-08-05T00:09:20.247Z,104.20
2022-08-05T00:11:55.777Z,104.96
2022-08-05T00:14:31.405Z,104.66
2022-08-05T00:17:02.053Z,104.50
2022-08-05T00:19:33.673Z,103.79
2022-08-05T00:22:11.406Z,103.86
2022-08-05T00:24:42.231Z,104.92
2022-08-05T00:27:13.991Z,104.09
2022-08-05T00:29:45.177Z,103.52
2022-08-05T00:32:15.022Z,103.63
2022-08-05T00:35:03.640Z,102.29
2022-08-05T00:37:51.190Z,104.40
2022-08-05T00:40:28.339Z,101.34
2022-08-05T00:42:59.861Z,100.90
2022-08-05T00:45:38.547Z,103.70
2022-08-05T00:48:09.331Z,103.71
2022-08-05T00:50:38.340Z,103.30
2022-08-05T00:53:09.614Z,102.13
2022-08-05T00:55:54.978Z,100.88
2022-08-05T00:58:27.685Z,103.05
2022-08-05T01:00:56.565Z,102.53
2022-08-05T01:03:33.469Z,102.49
2022-08-05T01:06:05.465Z,100.35
2022-08-05T01:08:42.935Z,101.28
2022-08-05T01:11:22.417Z,101.03
2022-08-05T01:14:15.644Z,100.46
2022-08-05T01:16:50.511Z,99.91
2022-08-05T01:19:57.220Z,99.32
2022-08-05T01:22:39.667Z,99.27
2022-08-05T01:25:40.085Z,98.80
2022-08-05T01:28:29.968Z,98.00
2022-08-05T01:31:03.096Z,97.40
2022-08-05T01:33:36.126Z,96.70
2022-08-05T01:36:13.061Z,95.31
2022-08-05T01:38:48.415Z,96.13
2022-08-05T01:41:21.851Z,94.65
2022-08-05T01:43:53.428Z,94.37
2022-08-05T01:46:42.395Z,93.46
2022-08-05T01:49:24.449Z,93.27
2022-08-05T01:51:59.912Z,92.56
2022-08-05T01:54:34.292Z,92.72
2022-08-05T01:58:10.214Z,93.33
2022-08-05T02:00:11.554Z,93.34
2022-08-05T02:02:51.148Z,93.27
2022-08-05T02:05:28.510Z,92.67
2022-08-05T02:08:01.410Z,92.46
2022-08-05T02:10:39.427Z,93.36
2022-08-05T02:13:16.208Z,93.53
2022-08-05T02:15:51.545Z,94.09
2022-08-05T02:18:34.503Z,93.26
2022-08-05T02:21:13.249Z,95.23
2022-08-05T02:23:49.882Z,95.22
2022-08-05T02:26:30.066Z,95.25
2022-08-05T02:29:04.006Z,95.07
2022-08-05T02:31:49.860Z,95.09
2022-08-05T02:34:27.420Z,94.14
2022-08-05T02:37:09.417Z,93.37
2022-08-05T02:39:41.344Z,93.82
2022-08-05T02:42:10.592Z,94.07
2022-08-05T02:45:00.040Z,93.71
2022-08-05T02:47:58.557Z,93.93
2022-08-05T02:50:26.426Z,93.00
2022-08-05T02:53:06.818Z,93.19
2022-08-05T02:55:53.959Z,93.21
2022-08-05T02:58:30.594Z,93.62
2022-08-05T03:01:02.867Z,93.04
2022-08-05T03:04:02.582Z,93.14
2022-08-05T03:06:57.025Z,92.01
2022-08-05T03:09:27.066Z,91.43
2022-08-05T03:12:06.369Z,91.90
2022-08-05T03:14:46.066Z,91.30
2022-08-05T03:17:17.763Z,91.04
2022-08-05T03:19:53.289Z,91.36
2022-08-05T03:22:32.196Z,91.38
2022-08-05T03:25:11.567Z,91.35
2022-08-05T03:27:59.912Z,90.51
2022-08-05T03:30:34.047Z,91.11
2022-08-05T03:33:03.027Z,89.74
2022-08-05T03:35:41.215Z,89.76
2022-08-05T03:38:12.528Z,89.37
2022-08-05T03:40:45.366Z,89.31
2022-08-05T03:44:09.467Z,88.37
2022-08-05T03:46:08.075Z,86.47
2022-08-05T03:48:36.905Z,86.80
2022-08-05T03:52:38.086Z,84.83
2022-08-05T03:55:06.836Z,84.98
2022-08-05T03:56:58.967Z,84.18
2022-08-05T03:59:54.322Z,83.60
2022-08-05T04:02:38.415Z,81.86
2022-08-05T04:05:12.165Z,81.23
2022-08-05T04:07:57.416Z,80.87
2022-08-05T04:10:31.955Z,80.21
2022-08-05T04:13:04.223Z,79.54
2022-08-05T04:15:36.172Z,79.40
2022-08-05T04:18:06.879Z,78.95
2022-08-05T04:20:36.279Z,78.43
2022-08-05T04:23:05.977Z,77.70
2022-08-05T04:26:00.520Z,76.98
2022-08-05T04:28:30.911Z,76.59
2022-08-05T04:31:01.549Z,76.33
2022-08-05T04:34:17.118Z,76.25
2022-08-05T04:36:49.816Z,76.29
2022-08-05T04:39:10.906Z,76.19
2022-08-05T04:41:41.313Z,76.07
2022-08-05T04:44:10.019Z,76.01
2022-08-05T04:46:38.972Z,76.10
2022-08-05T04:49:12.100Z,76.09
2022-08-05T04:51:43.039Z,76.36
2022-08-05T04:54:14.828Z,76.46
2022-08-05T04:56:43.867Z,76.47
2022-08-05T04:59:17.439Z,76.47
2022-08-05T05:02:07.331Z,76.41
2022-08-05T05:04:38.420Z,76.44
2022-08-05T05:07:12.738Z,76.41
2022-08-05T05:09:45.831Z,76.16
2022-08-05T05:12:14.962Z,76.21
2022-08-05T05:14:50.735Z,76.26
2022-08-05T05:17:23.740Z,76.16
2022-08-05T05:19:56.594Z,76.04
2022-08-05T05:22:26.376Z,76.08
2022-08-05T05:25:00.157Z,76.13
2022-08-05T05:27:41.150Z,76.25
2022-08-05T05:30:15.528Z,76.06
2022-08-05T05:33:00.878Z,76.21
2022-08-05T05:35:37.589Z,75.95
2022-08-05T05:38:09.509Z,76.11
2022-08-05T05:40:49.543Z,76.05
2022-08-05T05:43:22.255Z,75.88
2022-08-05T05:46:15.645Z,75.90
2022-08-05T05:48:45.855Z,75.88
2022-08-05T05:51:23.052Z,75.73
2022-08-05T05:53:57.806Z,75.75
2022-08-05T05:56:34.509Z,75.23
2022-08-05T05:59:05.868Z,74.98
2022-08-05T06:01:38.197Z,74.64
2022-08-05T06:04:11.954Z,74.01
2022-08-05T06:06:42.651Z,73.57
2022-08-05T06:09:16.743Z,73.22
2022-08-05T06:11:59.094Z,73.19
2022-08-05T06:14:29.003Z,72.37
2022-08-05T06:16:57.876Z,72.28
2022-08-05T06:19:34.745Z,71.96
2022-08-05T06:22:04.195Z,71.83
2022-08-05T06:24:48.095Z,71.68
2022-08-05T06:28:11.407Z,71.71
2022-08-05T06:30:16.797Z,72.19
2022-08-05T06:32:48.629Z,71.40
2022-08-05T06:36:03.831Z,70.56
2022-08-05T06:38:11.666Z,70.46
2022-08-05T06:40:42.126Z,69.92
2022-08-05T06:43:57.506Z,69.56
2022-08-05T06:46:03.950Z,69.07
2022-08-05T06:48:55.841Z,68.99
2022-08-05T06:51:30.217Z,67.93
2022-08-05T06:54:02.426Z,67.30
2022-08-05T06:56:34.665Z,66.98
2022-08-05T06:59:09.358Z,65.89
2022-08-05T07:01:41.520Z,65.11
2022-08-05T07:04:11.053Z,65.20
2022-08-05T07:06:42.443Z,65.66
2022-08-05T07:09:10.946Z,66.27
2022-08-05T07:11:41.289Z,66.29
2022-08-05T07:14:30.307Z,66.17
2022-08-05T07:17:58.406Z,66.27
2022-08-05T07:20:34.187Z,65.85
2022-08-05T07:22:38.949Z,64.79
2022-08-05T07:25:09.454Z,64.36
2022-08-05T07:27:58.239Z,64.33
2022-08-05T07:30:32.570Z,63.70
2022-08-05T07:33:08.836Z,63.87
2022-08-05T07:36:01.558Z,63.74
2022-08-05T07:38:34.512Z,64.13
2022-08-05T07:42:09.547Z,63.92
2022-08-05T07:43:56.573Z,63.89
2022-08-05T07:46:29.625Z,63.78
2022-08-05T07:49:05.450Z,62.89
2022-08-05T07:51:36.663Z,62.92
2022-08-05T07:54:08.345Z,62.36
2022-08-05T07:57:00.062Z,61.73
2022-08-05T07:59:38.981Z,61.84
2022-08-05T08:02:16.920Z,62.18
2022-08-05T08:04:48.180Z,61.70
2022-08-05T08:07:22.367Z,61.77
2022-08-05T08:09:55.005Z,61.32
2022-08-05T08:12:35.134Z,61.58
2022-08-05T08:15:15.782Z,59.94
2022-08-05T08:17:52.908Z,62.05
2022-08-05T08:20:44.542Z,59.67
2022-08-05T08:24:02.215Z,58.38
2022-08-05T08:26:04.551Z,59.07
2022-08-05T08:28:36.995Z,59.59
2022-08-05T08:31:22.224Z,59.09
2022-08-05T08:33:53.255Z,59.57
2022-08-05T08:36:38.105Z,59.66
2022-08-05T08:39:15.114Z,60.06
2022-08-05T08:41:51.966Z,60.73
2022-08-05T08:45:19.237Z,59.45
2022-08-05T08:48:06.404Z,59.27
2022-08-05T08:50:31.930Z,60.00
2022-08-05T08:53:08.326Z,58.89
2022-08-05T08:56:05.320Z,58.08
2022-08-05T08:58:43.664Z,56.65
2022-08-05T09:01:17.092Z,58.83
2022-08-05T09:03:55.158Z,57.51
2022-08-05T09:06:29.409Z,59.54
2022-08-05T09:09:00.534Z,57.76
2022-08-05T09:11:50.686Z,57.39
2022-08-05T09:14:58.318Z,55.30
2022-08-05T09:17:09.430Z,56.15
2022-08-05T09:20:01.586Z,55.94
2022-08-05T09:22:30.855Z,55.45
2022-08-05T09:25:01.313Z,56.08
2022-08-05T09:28:05.339Z,55.01
2022-08-05T09:30:23.894Z,55.97
2022-08-05T09:32:52.776Z,56.74
2022-08-05T09:35:27.056Z,56.39
2022-08-05T09:38:12.375Z,56.37
2022-08-05T09:40:53.800Z,55.68
2022-08-05T09:43:41.055Z,55.74
2022-08-05T09:46:28.526Z,55.84
2022-08-05T09:49:06.864Z,55.46
2022-08-05T09:51:39.882Z,56.72
2022-08-05T09:54:11.754Z,55.64
2022-08-05T09:56:52.247Z,55.82
2022-08-05T09:59:27.786Z,86.56
2022-08-05T10:01:59.313Z,90.51
2022-08-05T10:04:38.416Z,92.57
2022-08-05T10:07:31.938Z,93.16
2022-08-05T10:10:13.938Z,92.05
2022-08-05T10:12:49.619Z,88.67
2022-08-05T10:15:24.185Z,90.33
2022-08-05T10:18:06.429Z,92.11
2022-08-05T10:20:37.927Z,93.61
2022-08-05T10:23:21.916Z,94.44
2022-08-05T10:25:57.817Z,94.34
2022-08-05T10:28:29.096Z,95.30
2022-08-05T10:32:50.751Z,95.33
2022-08-05T10:33:52.308Z,95.08
2022-08-05T10:36:23.694Z,95.05
2022-08-05T10:39:05.278Z,93.50
2022-08-05T10:41:51.379Z,93.30
2022-08-05T10:44:22.768Z,92.51
2022-08-05T10:46:54.330Z,93.26
2022-08-05T10:49:27.089Z,94.92
2022-08-05T10:52:05.031Z,93.46
2022-08-05T10:55:03.164Z,92.35
2022-08-05T10:57:33.883Z,87.86
2022-08-05T11:00:19.637Z,88.25
2022-08-05T11:03:23.172Z,87.52
2022-08-05T11:06:14.604Z,87.93
2022-08-05T11:09:17.708Z,89.86
2022-08-05T11:11:56.537Z,91.37
2022-08-05T11:14:57.358Z,89.10
2022-08-05T11:17:57.862Z,88.02
2022-08-05T11:20:39.279Z,86.60
2022-08-05T11:24:02.919Z,83.90
2022-08-05T11:26:28.299Z,82.67
2022-08-05T11:29:12.311Z,83.27
2022-08-05T11:31:57.500Z,83.45
2022-08-05T11:34:50.918Z,81.78
2022-08-05T11:38:37.192Z,82.30
2022-08-05T11:41:14.060Z,80.67
2022-08-05T11:44:06.214Z,78.55
2022-08-05T11:46:58.343Z,79.23
2022-08-05T11:49:28.766Z,79.53
2022-08-05T11:51:57.671Z,78.08
2022-08-05T11:54:32.629Z,80.65
2022-08-05T11:57:07.726Z,80.81
2022-08-05T11:59:49.814Z,82.24
2022-08-05T12:02:24.143Z,83.91
2022-08-05T12:05:07.895Z,84.81
2022-08-05T12:08:03.248Z,80.70
2022-08-05T12:10:45.160Z,78.11
2022-08-05T12:13:18.909Z,78.93
2022-08-05T12:16:15.468Z,81.57
2022-08-05T12:18:52.137Z,81.14
2022-08-05T12:21:26.786Z,83.64
2022-08-05T12:24:09.893Z,84.48
2022-08-05T12:26:39.769Z,84.49
2022-08-05T12:29:16.294Z,81.69
2022-08-05T12:31:53.125Z,81.07
2022-08-05T12:34:26.773Z,84.07
2022-08-05T12:36:58.431Z,81.58
2022-08-05T12:39:34.391Z,79.29
2022-08-05T12:42:14.824Z,79.94
2022-08-05T12:44:44.643Z,84.38
2022-08-05T12:47:25.455Z,76.82
2022-08-05T12:50:04.009Z,78.68
2022-08-05T12:52:39.487Z,79.26
2022-08-05T12:55:23.629Z,78.02
2022-08-05T12:58:50.346Z,78.53
2022-08-05T13:02:01.008Z,77.00
2022-08-05T13:03:33.474Z,77.49
2022-08-05T13:06:03.072Z,78.88
2022-08-05T13:08:33.014Z,77.11
2022-08-05T13:11:02.221Z,78.56
2022-08-05T13:14:04.698Z,77.51
2022-08-05T13:16:25.145Z,79.19
2022-08-05T13:18:55.045Z,78.72
2022-08-05T13:21:28.497Z,72.17
2022-08-05T13:24:08.969Z,73.01
2022-08-05T13:26:37.467Z,73.82
2022-08-05T13:29:06.120Z,75.59
2022-08-05T13:32:04.605Z,74.15
2022-08-05T13:34:25.883Z,71.38
2022-08-05T13:36:55.273Z,73.28
2022-08-05T13:40:16.235Z,70.61
2022-08-05T13:42:16.265Z,75.73
2022-08-05T13:44:46.072Z,71.10
2022-08-05T13:47:34.715Z,74.02
2022-08-05T13:50:04.512Z,71.38
2022-08-05T13:52:35.634Z,74.35
2022-08-05T13:55:08.013Z,73.37
2022-08-05T13:57:49.050Z,72.51
2022-08-05T14:00:27.194Z,74.18
2022-08-05T14:02:57.348Z,73.64
2022-08-05T14:05:48.552Z,76.26
2022-08-05T14:08:21.385Z,77.91
2022-08-05T14:11:03.244Z,78.05
2022-08-05T14:13:48.206Z,76.21
2022-08-05T14:16:19.229Z,75.79
2022-08-05T14:18:47.777Z,75.12
2022-08-05T14:21:23.819Z,72.54
2022-08-05T14:24:04.886Z,77.23
2022-08-05T14:26:36.812Z,80.72
2022-08-05T14:29:16.310Z,82.36
2022-08-05T14:32:03.109Z,82.39
2022-08-05T14:34:35.117Z,78.69
2022-08-05T14:37:04.605Z,79.37
2022-08-05T14:39:49.736Z,75.21
2022-08-05T14:42:23.415Z,72.97
2022-08-05T14:44:53.795Z,76.42
2022-08-05T14:48:03.236Z,77.69
2022-08-05T14:50:19.106Z,75.57
2022-08-05T14:52:56.922Z,78.84
2022-08-05T14:55:38.546Z,79.14
2022-08-05T14:58:10.836Z,74.59
2022-08-05T15:00:59.092Z,71.47
2022-08-05T15:03:33.383Z,72.99
2022-08-05T15:06:13.480Z,75.59
2022-08-05T15:08:58.173Z,77.24
2022-08-05T15:11:51.223Z,77.98
2022-08-05T15:14:34.457Z,82.29
2022-08-05T15:17:10.014Z,77.87
2022-08-05T15:19:55.158Z,75.41
2022-08-05T15:22:27.197Z,77.49
2022-08-05T15:24:59.199Z,81.39
2022-08-05T15:27:35.905Z,85.76
2022-08-05T15:30:06.633Z,91.40
2022-08-05T15:32:35.042Z,81.07
2022-08-05T15:35:09.975Z,84.52
2022-08-05T15:38:33.494Z,90.31
2022-08-05T15:40:58.699Z,90.71
2022-08-05T15:43:20.088Z,89.69
2022-08-05T15:46:00.442Z,91.34
2022-08-05T15:48:30.959Z,87.22
2022-08-05T15:51:03.456Z,83.90
2022-08-05T15:53:38.563Z,88.14
2022-08-05T15:56:19.774Z,91.51
2022-08-05T15:58:48.423Z,86.74
2022-08-05T16:01:20.049Z,89.38
2022-08-05T16:03:50.889Z,91.66
2022-08-05T16:06:22.778Z,92.94
2022-08-05T16:08:53.680Z,93.30
2022-08-05T16:11:42.872Z,94.07
2022-08-05T16:14:17.529Z,84.10
2022-08-05T16:16:48.547Z,84.56
2022-08-05T16:19:18.889Z,76.65
2022-08-05T16:21:58.721Z,72.84
2022-08-05T16:24:40.321Z,78.88
2022-08-05T16:27:15.996Z,86.35
2022-08-05T16:29:51.099Z,80.47
2022-08-05T16:32:23.222Z,73.92
2022-08-05T16:34:58.966Z,72.31
2022-08-05T16:38:14.885Z,70.47
2022-08-05T16:40:26.540Z,75.86
2022-08-05T16:42:58.003Z,76.18
2022-08-05T16:46:04.416Z,80.63
2022-08-05T16:48:25.461Z,80.07
2022-08-05T16:50:55.256Z,81.27
2022-08-05T16:53:32.523Z,82.30
2022-08-05T16:56:12.407Z,79.27
2022-08-05T16:58:41.242Z,80.87
2022-08-05T17:01:10.359Z,74.87
2022-08-05T17:03:40.324Z,70.78
2022-08-05T17:06:09.497Z,68.07
2022-08-05T17:08:52.788Z,66.98
2022-08-05T17:11:23.366Z,67.20
2022-08-05T17:14:00.663Z,67.68
2022-08-05T17:16:36.407Z,67.33
2022-08-05T17:19:09.601Z,68.23
2022-08-05T17:21:40.072Z,68.46
2022-08-05T17:24:19.890Z,68.48
2022-08-05T17:26:59.242Z,67.52
2022-08-05T17:29:33.324Z,69.90
2022-08-05T17:32:08.624Z,71.80
2022-08-05T17:34:41.984Z,75.79
2022-08-05T17:37:27.358Z,78.66
2022-08-05T17:40:00.254Z,80.37
2022-08-05T17:42:30.100Z,82.65
2022-08-05T17:45:09.911Z,83.57
2022-08-05T17:47:53.551Z,83.90
2022-08-05T17:50:28.190Z,84.86
2022-08-05T17:52:58.954Z,85.31
2022-08-05T17:55:37.587Z,85.98
2022-08-05T17:58:09.754Z,84.24
2022-08-05T18:00:40.801Z,85.76
2022-08-05T18:03:28.201Z,85.66
2022-08-05T18:06:12.006Z,87.01
2022-08-05T18:08:46.079Z,87.64
2022-08-05T18:11:23.738Z,87.80
2022-08-05T18:14:03.650Z,87.81
2022-08-05T18:16:33.251Z,86.55
2022-08-05T18:19:01.835Z,85.99
2022-08-05T18:22:08.891Z,86.96
2022-08-05T18:24:19.858Z,84.25
2022-08-05T18:26:49.363Z,85.29
2022-08-05T18:29:17.719Z,83.71
2022-08-05T18:32:06.786Z,83.35
2022-08-05T18:34:42.788Z,83.20
2022-08-05T18:37:12.844Z,83.79
2022-08-05T18:40:33.930Z,84.55
2022-08-05T18:42:49.712Z,84.88
2022-08-05T18:45:22.976Z,85.09
2022-08-05T18:47:56.737Z,86.32
2022-08-05T18:50:46.491Z,86.75
2022-08-05T18:53:22.165Z,88.55
2022-08-05T18:55:53.000Z,89.18
2022-08-05T18:58:27.271Z,90.08
2022-08-05T19:00:57.568Z,91.39
2022-08-05T19:03:53.392Z,91.18
2022-08-05T19:06:21.542Z,90.44
2022-08-05T19:08:52.134Z,90.98
2022-08-05T19:11:28.467Z,92.75
2022-08-05T19:14:37.483Z,92.02
2022-08-05T19:16:53.865Z,92.90
2022-08-05T19:19:23.540Z,93.64
2022-08-05T19:21:52.394Z,93.07
2022-08-05T19:24:34.114Z,95.99
2022-08-05T19:27:04.128Z,93.16
2022-08-05T19:29:36.355Z,95.68
2022-08-05T19:32:08.770Z,96.76
2022-08-05T19:34:40.137Z,97.24
2022-08-05T19:37:10.105Z,95.91
2022-08-05T19:39:45.986Z,98.80
2022-08-05T19:42:34.931Z,99.08
2022-08-05T19:45:06.491Z,100.07
2022-08-05T19:47:37.549Z,100.70
2022-08-05T19:50:10.610Z,101.66
2022-08-05T19:52:40.912Z,102.12
2022-08-05T19:56:14.802Z,101.98
2022-08-05T19:58:07.104Z,101.31
2022-08-05T20:00:48.695Z,101.54
2022-08-05T20:03:17.295Z,101.78
2022-08-05T20:05:51.159Z,102.18
2022-08-05T20:08:20.877Z,101.80
2022-08-05T20:10:55.267Z,101.77
2022-08-05T20:13:30.180Z,101.96
2022-08-05T20:16:12.083Z,101.46
2022-08-05T20:18:40.860Z,102.12
2022-08-05T20:21:09.676Z,102.22
2022-08-05T20:23:50.820Z,102.02
2022-08-05T20:26:25.372Z,102.08
2022-08-05T20:28:56.922Z,102.22
2022-08-05T20:31:37.083Z,103.17
2022-08-05T20:34:15.112Z,102.75
2022-08-05T20:36:43.813Z,103.07
2022-08-05T20:39:13.023Z,102.80
2022-08-05T20:41:45.251Z,102.67
2022-08-05T20:44:17.551Z,102.98
2022-08-05T20:46:48.354Z,103.15
2022-08-05T20:49:24.025Z,102.90
2022-08-05T20:51:54.509Z,102.97
2022-08-05T20:54:22.919Z,103.91
2022-08-05T20:56:54.754Z,104.04
2022-08-05T20:59:26.431Z,103.95
2022-08-05T21:01:57.975Z,103.89
2022-08-05T21:04:27.549Z,103.47
2022-08-05T21:06:55.986Z,104.50
2022-08-05T21:09:24.461Z,104.08
2022-08-05T21:12:10.093Z,102.95
2022-08-05T21:14:39.689Z,103.95
2022-08-05T21:17:08.035Z,103.79
2022-08-05T21:19:46.598Z,103.63
2022-08-05T21:22:17.810Z,103.02
2022-08-05T21:24:52.794Z,102.82
2022-08-05T21:27:24.992Z,103.68
2022-08-05T21:29:55.392Z,102.67
2022-08-05T21:32:24.420Z,102.01
2022-08-05T21:35:06.679Z,101.65
2022-08-05T21:37:47.413Z,101.61
2022-08-05T21:40:22.235Z,100.58
2022-08-05T21:42:54.157Z,101.44
2022-08-05T21:45:25.027Z,101.15
2022-08-05T21:48:08.252Z,102.80
2022-08-05T21:50:37.466Z,103.02
2022-08-05T21:53:16.430Z,101.95
2022-08-05T21:56:04.410Z,99.55
2022-08-05T21:58:36.667Z,100.06
2022-08-05T22:01:11.001Z,101.32
2022-08-05T22:03:53.584Z,100.92
2022-08-05T22:06:35.649Z,102.13
2022-08-05T22:09:14.907Z,102.07
2022-08-05T22:11:47.059Z,102.49
2022-08-05T22:14:33.698Z,102.51
2022-08-05T22:17:06.921Z,101.85
2022-08-05T22:20:00.644Z,99.55
2022-08-05T22:22:26.955Z,99.50
2022-08-05T22:25:18.194Z,101.38
2022-08-05T22:28:09.620Z,101.80
2022-08-05T22:30:56.500Z,101.35
2022-08-05T22:33:57.912Z,100.25
2022-08-05T22:36:15.575Z,101.28
2022-08-05T22:38:48.193Z,100.78
2022-08-05T22:42:05.099Z,99.56
2022-08-05T22:44:08.413Z,97.83
2022-08-05T22:46:40.072Z,96.26
2022-08-05T22:49:23.307Z,96.63
2022-08-05T22:52:07.308Z,96.16
2022-08-05T22:54:37.642Z,94.68
2022-08-05T22:57:08.660Z,96.34
2022-08-05T22:59:45.514Z,97.23
2022-08-05T23:02:29.776Z,98.94
2022-08-05T23:05:02.047Z,98.44
2022-08-05T23:07:44.697Z,96.93
2022-08-05T23:10:19.494Z,98.29
2022-08-05T23:12:51.586Z,93.85
2022-08-05T23:15:29.522Z,96.63
2022-08-05T23:18:11.738Z,93.56
2022-08-05T23:20:44.549Z,92.85
2022-08-05T23:23:13.229Z,92.43
2022-08-05T23:25:51.862Z,91.40
2022-08-05T23:28:24.085Z,93.78
2022-08-05T23:31:15.839Z,92.05
2022-08-05T23:34:05.045Z,89.78
2022-08-05T23:36:40.274Z,90.28
2022-08-05T23:39:17.589Z,89.48
2022-08-05T23:42:01.309Z,88.21
2022-08-05T23:44:31.292Z,88.12
2022-08-05T23:47:02.521Z,87.39
2022-08-05T23:49:46.576Z,87.89
2022-08-05T23:52:30.681Z,88.45
2022-08-05T23:55:01.635Z,86.47
2022-08-05T23:57:33.881Z,86.29
